Lunteren, Netherlands
Current Conditions -  °F | °C
As of 4:55 PM on Tuesday 21 Oct 2014 (Local Time) from EHDL Reporting Station
Broken Clouds Broken Clouds  
Wind Chill: 52°   Ceiling: 3600
Heat Index: 52°   Visibility: 6mi
Dew Point: 46°   Wind: 16mph
Humidity: 82%   Direction: 270°W
Pressure: 29.5"   Gusts: NA
Location:  52.09°N, 5.62°E
Report Text: EHDL 211455Z AUTO 27014KT 9999 SCT031 BKN036 BKN043 11/08 Q0999 REDZ BLU
Loading
Personal Weather Stations






























Interactive Weather Map
Tropical Storm Tracking
New forecast layout! Learn more

10-Day Weather Forecast

Advertisements
Track Severe Weather on mobile